BWI weather

Baltimore/Washington International Thurgood Marshall Airport
Baltimore, Maryland, United States

Public forecast

Using degrees Fahrenheit for public forecast. Weather courtesy of forecast.io.

METAR (pilot weather report)

Retrieved 2018/12/13 02:54 UTC (47 minutes ago):

KBWI 130254Z 15004KT 10SM BKN160 BKN250 02/M03 A3020 RMK AO2 SLP226 T00221033 53004

TAF (pilot weather forecast)

Forecast is more than 12 hours old.

Retrieved 2018/12/12 00:27 UTC (1 day ago):

TAF KBWI 122325Z 1300/1406 13004KT P6SM SCT080 BKN200 FM130500 VRB04KT P6SM BKN050 BKN130 FM131500 VRB03KT P6SM SCT050 BKN130 FM140230 VRB03KT P6SM BKN050